sensor_id;sensor_type;location;lat;lon;timestamp;P1;durP1;ratioP1;P2;durP2;ratioP2
50605;SDS011;36557;53.572;10.170;2023-05-29T00:00:20;12.05;;;2.10;;
50605;SDS011;36557;53.572;10.170;2023-05-29T00:02:46;8.88;;;1.70;;
50605;SDS011;36557;53.572;10.170;2023-05-29T00:05:13;11.05;;;1.77;;
50605;SDS011;36557;53.572;10.170;2023-05-29T00:07:39;5.28;;;1.80;;
50605;SDS011;36557;53.572;10.170;2023-05-29T00:10:06;5.72;;;1.70;;
50605;SDS011;36557;53.572;10.170;2023-05-29T00:12:32;11.73;;;1.90;;
50605;SDS011;36557;53.572;10.170;2023-05-29T00:14:59;11.15;;;1.98;;
50605;SDS011;36557;53.572;10.170;2023-05-29T00:17:25;7.00;;;1.77;;
50605;SDS011;36557;53.572;10.170;2023-05-29T00:19:51;9.27;;;1.88;;
50605;SDS011;36557;53.572;10.170;2023-05-29T00:22:17;10.02;;;2.00;;
50605;SDS011;36557;53.572;10.170;2023-05-29T00:24:44;9.20;;;1.80;;
50605;SDS011;36557;53.572;10.170;2023-05-29T00:27:10;9.82;;;1.88;;
50605;SDS011;36557;53.572;10.170;2023-05-29T00:29:36;10.27;;;2.50;;
50605;SDS011;36557;53.572;10.170;2023-05-29T00:32:03;8.80;;;2.47;;
50605;SDS011;36557;53.572;10.170;2023-05-29T00:34:30;9.60;;;2.42;;
50605;SDS011;36557;53.572;10.170;2023-05-29T00:36:56;12.00;;;2.38;;
50605;SDS011;36557;53.572;10.170;2023-05-29T00:39:22;11.73;;;2.00;;
50605;SDS011;36557;53.572;10.170;2023-05-29T00:41:48;11.05;;;2.10;;
50605;SDS011;36557;53.572;10.170;2023-05-29T00:44:17;10.27;;;2.05;;
50605;SDS011;36557;53.572;10.170;2023-05-29T00:46:43;7.97;;;1.95;;
50605;SDS011;36557;53.572;10.170;2023-05-29T00:49:09;13.60;;;2.33;;
50605;SDS011;36557;53.572;10.170;2023-05-29T00:51:36;9.85;;;2.20;;
50605;SDS011;36557;53.572;10.170;2023-05-29T00:54:04;13.23;;;2.20;;
50605;SDS011;36557;53.572;10.170;2023-05-29T00:56:30;9.65;;;1.90;;
50605;SDS011;36557;53.572;10.170;2023-05-29T00:58:57;10.43;;;2.03;;
50605;SDS011;36557;53.572;10.170;2023-05-29T01:01:23;10.93;;;2.33;;
50605;SDS011;36557;53.572;10.170;2023-05-29T01:03:50;9.55;;;1.90;;
50605;SDS011;36557;53.572;10.170;2023-05-29T01:06:18;9.95;;;2.33;;
50605;SDS011;36557;53.572;10.170;2023-05-29T01:08:45;15.05;;;2.08;;
50605;SDS011;36557;53.572;10.170;2023-05-29T01:13:41;12.48;;;2.10;;
50605;SDS011;36557;53.572;10.170;2023-05-29T01:16:12;10.52;;;2.03;;
50605;SDS011;36557;53.572;10.170;2023-05-29T01:18:46;10.05;;;1.92;;
50605;SDS011;36557;53.572;10.170;2023-05-29T01:24:02;8.18;;;1.90;;
50605;SDS011;36557;53.572;10.170;2023-05-29T01:29:14;8.15;;;1.90;;
50605;SDS011;36557;53.572;10.170;2023-05-29T01:31:41;9.00;;;1.80;;
50605;SDS011;36557;53.572;10.170;2023-05-29T01:34:08;10.65;;;2.53;;
50605;SDS011;36557;53.572;10.170;2023-05-29T01:36:34;14.32;;;2.22;;
50605;SDS011;36557;53.572;10.170;2023-05-29T01:39:00;11.73;;;2.10;;
50605;SDS011;36557;53.572;10.170;2023-05-29T01:41:27;10.75;;;2.05;;
50605;SDS011;36557;53.572;10.170;2023-05-29T01:43:55;10.20;;;1.98;;
50605;SDS011;36557;53.572;10.170;2023-05-29T01:46:22;11.10;;;2.58;;
50605;SDS011;36557;53.572;10.170;2023-05-29T01:48:50;10.20;;;1.88;;
50605;SDS011;36557;53.572;10.170;2023-05-29T01:51:16;14.32;;;2.67;;
50605;SDS011;36557;53.572;10.170;2023-05-29T01:53:42;10.13;;;2.03;;
50605;SDS011;36557;53.572;10.170;2023-05-29T01:56:12;13.98;;;2.25;;
50605;SDS011;36557;53.572;10.170;2023-05-29T01:58:38;12.07;;;2.28;;
50605;SDS011;36557;53.572;10.170;2023-05-29T02:01:05;9.13;;;1.85;;
50605;SDS011;36557;53.572;10.170;2023-05-29T02:03:31;11.15;;;1.98;;
50605;SDS011;36557;53.572;10.170;2023-05-29T02:05:58;11.82;;;2.47;;
50605;SDS011;36557;53.572;10.170;2023-05-29T02:08:24;12.32;;;1.95;;
50605;SDS011;36557;53.572;10.170;2023-05-29T02:10:50;12.38;;;2.35;;
50605;SDS011;36557;53.572;10.170;2023-05-29T02:13:16;7.22;;;1.80;;
50605;SDS011;36557;53.572;10.170;2023-05-29T02:15:43;8.93;;;1.75;;
50605;SDS011;36557;53.572;10.170;2023-05-29T02:18:10;12.23;;;2.10;;
50605;SDS011;36557;53.572;10.170;2023-05-29T02:20:39;11.23;;;1.98;;
50605;SDS011;36557;53.572;10.170;2023-05-29T02:23:05;12.63;;;2.25;;
50605;SDS011;36557;53.572;10.170;2023-05-29T02:25:31;11.13;;;2.58;;
50605;SDS011;36557;53.572;10.170;2023-05-29T02:27:58;10.93;;;2.58;;
50605;SDS011;36557;53.572;10.170;2023-05-29T02:30:24;10.77;;;2.17;;
50605;SDS011;36557;53.572;10.170;2023-05-29T02:32:50;9.48;;;1.95;;
50605;SDS011;36557;53.572;10.170;2023-05-29T02:35:16;12.18;;;2.33;;
50605;SDS011;36557;53.572;10.170;2023-05-29T02:37:45;11.55;;;2.30;;
50605;SDS011;36557;53.572;10.170;2023-05-29T02:40:11;9.55;;;1.95;;
50605;SDS011;36557;53.572;10.170;2023-05-29T02:42:37;10.38;;;2.13;;
50605;SDS011;36557;53.572;10.170;2023-05-29T02:45:04;10.05;;;1.83;;
50605;SDS011;36557;53.572;10.170;2023-05-29T02:47:30;11.75;;;2.65;;
50605;SDS011;36557;53.572;10.170;2023-05-29T02:49:56;13.70;;;2.33;;
50605;SDS011;36557;53.572;10.170;2023-05-29T02:52:22;9.85;;;2.38;;
50605;SDS011;36557;53.572;10.170;2023-05-29T02:54:49;9.65;;;2.10;;
50605;SDS011;36557;53.572;10.170;2023-05-29T02:57:15;11.65;;;2.33;;
50605;SDS011;36557;53.572;10.170;2023-05-29T02:59:41;10.48;;;2.15;;
50605;SDS011;36557;53.572;10.170;2023-05-29T03:02:09;12.73;;;1.88;;
50605;SDS011;36557;53.572;10.170;2023-05-29T03:04:35;9.07;;;2.22;;
50605;SDS011;36557;53.572;10.170;2023-05-29T03:07:01;10.45;;;2.25;;
50605;SDS011;36557;53.572;10.170;2023-05-29T03:09:27;10.43;;;2.47;;
50605;SDS011;36557;53.572;10.170;2023-05-29T03:11:53;9.50;;;1.42;;
50605;SDS011;36557;53.572;10.170;2023-05-29T03:14:19;9.52;;;2.50;;
50605;SDS011;36557;53.572;10.170;2023-05-29T03:16:46;12.25;;;2.03;;
50605;SDS011;36557;53.572;10.170;2023-05-29T03:19:14;15.63;;;2.30;;
50605;SDS011;36557;53.572;10.170;2023-05-29T03:21:40;15.52;;;2.28;;
50605;SDS011;36557;53.572;10.170;2023-05-29T03:24:06;13.85;;;2.35;;
50605;SDS011;36557;53.572;10.170;2023-05-29T03:26:32;17.58;;;2.30;;
50605;SDS011;36557;53.572;10.170;2023-05-29T03:28:58;14.05;;;2.53;;
50605;SDS011;36557;53.572;10.170;2023-05-29T03:31:24;12.20;;;2.63;;
50605;SDS011;36557;53.572;10.170;2023-05-29T03:33:50;10.13;;;2.28;;
50605;SDS011;36557;53.572;10.170;2023-05-29T03:36:16;14.25;;;2.60;;
50605;SDS011;36557;53.572;10.170;2023-05-29T03:38:43;11.88;;;2.33;;
50605;SDS011;36557;53.572;10.170;2023-05-29T03:41:09;13.25;;;2.35;;
50605;SDS011;36557;53.572;10.170;2023-05-29T03:43:35;8.57;;;2.10;;
50605;SDS011;36557;53.572;10.170;2023-05-29T03:46:02;11.00;;;2.50;;
50605;SDS011;36557;53.572;10.170;2023-05-29T03:48:28;10.60;;;2.22;;
50605;SDS011;36557;53.572;10.170;2023-05-29T03:50:54;12.45;;;2.22;;
50605;SDS011;36557;53.572;10.170;2023-05-29T03:53:20;12.82;;;2.45;;
50605;SDS011;36557;53.572;10.170;2023-05-29T03:55:46;10.98;;;2.20;;
50605;SDS011;36557;53.572;10.170;2023-05-29T03:58:12;11.77;;;2.20;;
50605;SDS011;36557;53.572;10.170;2023-05-29T04:00:38;10.40;;;2.75;;
50605;SDS011;36557;53.572;10.170;2023-05-29T04:03:05;9.60;;;2.40;;
50605;SDS011;36557;53.572;10.170;2023-05-29T04:05:31;15.00;;;2.78;;
50605;SDS011;36557;53.572;10.170;2023-05-29T04:07:57;12.85;;;2.63;;
50605;SDS011;36557;53.572;10.170;2023-05-29T04:10:23;11.35;;;2.38;;
50605;SDS011;36557;53.572;10.170;2023-05-29T04:12:49;9.48;;;2.67;;
50605;SDS011;36557;53.572;10.170;2023-05-29T04:15:15;10.43;;;2.15;;
50605;SDS011;36557;53.572;10.170;2023-05-29T04:17:41;13.32;;;2.38;;
50605;SDS011;36557;53.572;10.170;2023-05-29T04:20:08;13.48;;;2.65;;
50605;SDS011;36557;53.572;10.170;2023-05-29T04:22:37;11.85;;;2.30;;
50605;SDS011;36557;53.572;10.170;2023-05-29T04:25:04;12.68;;;2.42;;
50605;SDS011;36557;53.572;10.170;2023-05-29T04:27:30;12.48;;;2.63;;
50605;SDS011;36557;53.572;10.170;2023-05-29T04:30:06;14.00;;;2.33;;
50605;SDS011;36557;53.572;10.170;2023-05-29T04:32:32;11.55;;;1.90;;
50605;SDS011;36557;53.572;10.170;2023-05-29T04:34:59;14.70;;;2.33;;
50605;SDS011;36557;53.572;10.170;2023-05-29T04:37:29;10.10;;;2.25;;
50605;SDS011;36557;53.572;10.170;2023-05-29T04:39:57;14.05;;;3.20;;
50605;SDS011;36557;53.572;10.170;2023-05-29T04:42:23;14.27;;;2.83;;
50605;SDS011;36557;53.572;10.170;2023-05-29T04:44:50;13.07;;;3.28;;
50605;SDS011;36557;53.572;10.170;2023-05-29T04:47:19;11.77;;;3.13;;
50605;SDS011;36557;53.572;10.170;2023-05-29T04:49:47;10.38;;;2.22;;
50605;SDS011;36557;53.572;10.170;2023-05-29T04:52:14;13.82;;;2.47;;
50605;SDS011;36557;53.572;10.170;2023-05-29T04:54:40;11.70;;;2.75;;
50605;SDS011;36557;53.572;10.170;2023-05-29T04:57:06;15.85;;;2.42;;
50605;SDS011;36557;53.572;10.170;2023-05-29T04:59:33;12.27;;;2.85;;
50605;SDS011;36557;53.572;10.170;2023-05-29T05:02:00;13.15;;;2.53;;
50605;SDS011;36557;53.572;10.170;2023-05-29T05:04:26;16.38;;;2.72;;
50605;SDS011;36557;53.572;10.170;2023-05-29T05:06:52;16.02;;;3.30;;
50605;SDS011;36557;53.572;10.170;2023-05-29T05:09:21;9.50;;;2.17;;
50605;SDS011;36557;53.572;10.170;2023-05-29T05:11:47;9.93;;;2.22;;
50605;SDS011;36557;53.572;10.170;2023-05-29T05:14:16;14.10;;;2.65;;
50605;SDS011;36557;53.572;10.170;2023-05-29T05:16:42;12.35;;;2.35;;
50605;SDS011;36557;53.572;10.170;2023-05-29T05:19:11;17.50;;;2.78;;
50605;SDS011;36557;53.572;10.170;2023-05-29T05:21:40;14.05;;;2.85;;
50605;SDS011;36557;53.572;10.170;2023-05-29T05:24:09;16.77;;;3.53;;
50605;SDS011;36557;53.572;10.170;2023-05-29T05:26:35;13.98;;;2.65;;
50605;SDS011;36557;53.572;10.170;2023-05-29T05:29:01;18.83;;;3.00;;
50605;SDS011;36557;53.572;10.170;2023-05-29T05:31:39;14.30;;;2.80;;
50605;SDS011;36557;53.572;10.170;2023-05-29T05:34:08;10.82;;;2.63;;
50605;SDS011;36557;53.572;10.170;2023-05-29T05:36:34;12.25;;;2.92;;
50605;SDS011;36557;53.572;10.170;2023-05-29T05:39:01;13.30;;;2.55;;
50605;SDS011;36557;53.572;10.170;2023-05-29T05:41:28;11.90;;;2.78;;
50605;SDS011;36557;53.572;10.170;2023-05-29T05:44:10;15.00;;;2.53;;
50605;SDS011;36557;53.572;10.170;2023-05-29T05:46:43;16.60;;;2.97;;
50605;SDS011;36557;53.572;10.170;2023-05-29T05:49:10;13.07;;;2.17;;
50605;SDS011;36557;53.572;10.170;2023-05-29T05:51:36;12.02;;;2.67;;
50605;SDS011;36557;53.572;10.170;2023-05-29T05:54:02;11.80;;;2.78;;
50605;SDS011;36557;53.572;10.170;2023-05-29T05:56:28;12.05;;;2.60;;
50605;SDS011;36557;53.572;10.170;2023-05-29T05:58:54;14.23;;;2.30;;
50605;SDS011;36557;53.572;10.170;2023-05-29T06:01:20;15.05;;;2.67;;
50605;SDS011;36557;53.572;10.170;2023-05-29T06:03:49;11.25;;;2.20;;
50605;SDS011;36557;53.572;10.170;2023-05-29T06:06:34;12.00;;;2.08;;
50605;SDS011;36557;53.572;10.170;2023-05-29T06:09:00;14.60;;;2.90;;
50605;SDS011;36557;53.572;10.170;2023-05-29T06:11:26;13.10;;;2.97;;
50605;SDS011;36557;53.572;10.170;2023-05-29T06:13:52;12.38;;;2.45;;
50605;SDS011;36557;53.572;10.170;2023-05-29T06:16:19;14.57;;;2.33;;
50605;SDS011;36557;53.572;10.170;2023-05-29T06:18:45;11.80;;;2.50;;
50605;SDS011;36557;53.572;10.170;2023-05-29T06:21:12;10.85;;;3.35;;
50605;SDS011;36557;53.572;10.170;2023-05-29T06:23:44;15.65;;;3.10;;
50605;SDS011;36557;53.572;10.170;2023-05-29T06:26:10;15.02;;;3.03;;
50605;SDS011;36557;53.572;10.170;2023-05-29T06:28:37;14.68;;;2.95;;
50605;SDS011;36557;53.572;10.170;2023-05-29T06:31:03;11.45;;;2.83;;
50605;SDS011;36557;53.572;10.170;2023-05-29T06:33:29;12.80;;;2.55;;
50605;SDS011;36557;53.572;10.170;2023-05-29T06:35:55;10.43;;;2.38;;
50605;SDS011;36557;53.572;10.170;2023-05-29T06:38:21;11.40;;;2.60;;
50605;SDS011;36557;53.572;10.170;2023-05-29T06:40:48;14.23;;;2.65;;
50605;SDS011;36557;53.572;10.170;2023-05-29T06:43:14;17.95;;;3.00;;
50605;SDS011;36557;53.572;10.170;2023-05-29T06:45:40;11.02;;;2.42;;
50605;SDS011;36557;53.572;10.170;2023-05-29T06:48:09;12.18;;;2.10;;
50605;SDS011;36557;53.572;10.170;2023-05-29T06:50:35;7.97;;;2.25;;
50605;SDS011;36557;53.572;10.170;2023-05-29T06:53:01;13.30;;;2.55;;
50605;SDS011;36557;53.572;10.170;2023-05-29T06:55:27;12.98;;;2.55;;
50605;SDS011;36557;53.572;10.170;2023-05-29T06:57:53;9.00;;;2.40;;
50605;SDS011;36557;53.572;10.170;2023-05-29T07:00:19;11.07;;;2.60;;
50605;SDS011;36557;53.572;10.170;2023-05-29T07:02:46;12.25;;;2.72;;
50605;SDS011;36557;53.572;10.170;2023-05-29T07:05:12;14.40;;;2.35;;
50605;SDS011;36557;53.572;10.170;2023-05-29T07:07:47;9.15;;;2.30;;
50605;SDS011;36557;53.572;10.170;2023-05-29T07:10:13;13.10;;;3.22;;
50605;SDS011;36557;53.572;10.170;2023-05-29T07:12:39;6.50;;;2.10;;
50605;SDS011;36557;53.572;10.170;2023-05-29T07:15:05;9.35;;;2.40;;
50605;SDS011;36557;53.572;10.170;2023-05-29T07:17:32;13.45;;;3.38;;
50605;SDS011;36557;53.572;10.170;2023-05-29T07:20:07;11.40;;;2.95;;
50605;SDS011;36557;53.572;10.170;2023-05-29T07:22:33;9.18;;;2.60;;
50605;SDS011;36557;53.572;10.170;2023-05-29T07:25:00;11.82;;;2.97;;
50605;SDS011;36557;53.572;10.170;2023-05-29T07:27:26;12.77;;;2.78;;
50605;SDS011;36557;53.572;10.170;2023-05-29T07:29:52;13.38;;;2.65;;
50605;SDS011;36557;53.572;10.170;2023-05-29T07:32:18;11.55;;;2.80;;
50605;SDS011;36557;53.572;10.170;2023-05-29T07:34:45;15.70;;;5.18;;
50605;SDS011;36557;53.572;10.170;2023-05-29T07:37:11;14.95;;;2.70;;
50605;SDS011;36557;53.572;10.170;2023-05-29T07:39:37;15.48;;;3.08;;
50605;SDS011;36557;53.572;10.170;2023-05-29T07:42:03;11.00;;;2.85;;
50605;SDS011;36557;53.572;10.170;2023-05-29T07:44:30;13.13;;;3.20;;
50605;SDS011;36557;53.572;10.170;2023-05-29T07:46:56;15.02;;;2.75;;
50605;SDS011;36557;53.572;10.170;2023-05-29T07:49:23;12.23;;;2.67;;
50605;SDS011;36557;53.572;10.170;2023-05-29T07:51:49;9.57;;;2.70;;
50605;SDS011;36557;53.572;10.170;2023-05-29T07:54:15;10.43;;;2.80;;
50605;SDS011;36557;53.572;10.170;2023-05-29T07:56:46;11.65;;;3.28;;
50605;SDS011;36557;53.572;10.170;2023-05-29T07:59:12;12.00;;;2.40;;
50605;SDS011;36557;53.572;10.170;2023-05-29T08:01:38;7.35;;;2.08;;
50605;SDS011;36557;53.572;10.170;2023-05-29T08:04:04;12.57;;;2.45;;
50605;SDS011;36557;53.572;10.170;2023-05-29T08:06:31;12.77;;;2.95;;
50605;SDS011;36557;53.572;10.170;2023-05-29T08:09:01;9.65;;;2.80;;
50605;SDS011;36557;53.572;10.170;2023-05-29T08:11:27;11.95;;;2.70;;
50605;SDS011;36557;53.572;10.170;2023-05-29T08:13:53;11.55;;;2.70;;
50605;SDS011;36557;53.572;10.170;2023-05-29T08:16:19;11.38;;;2.83;;
50605;SDS011;36557;53.572;10.170;2023-05-29T08:18:47;9.82;;;2.50;;
50605;SDS011;36557;53.572;10.170;2023-05-29T08:21:13;10.73;;;3.28;;
50605;SDS011;36557;53.572;10.170;2023-05-29T08:23:39;12.23;;;2.70;;
50605;SDS011;36557;53.572;10.170;2023-05-29T08:26:05;13.98;;;2.80;;
50605;SDS011;36557;53.572;10.170;2023-05-29T08:28:32;11.63;;;2.90;;
50605;SDS011;36557;53.572;10.170;2023-05-29T08:30:58;11.13;;;2.55;;
50605;SDS011;36557;53.572;10.170;2023-05-29T08:33:25;7.25;;;2.65;;
50605;SDS011;36557;53.572;10.170;2023-05-29T08:35:51;10.05;;;3.05;;
50605;SDS011;36557;53.572;10.170;2023-05-29T08:38:17;10.98;;;2.78;;
50605;SDS011;36557;53.572;10.170;2023-05-29T08:40:43;7.72;;;2.25;;
50605;SDS011;36557;53.572;10.170;2023-05-29T08:43:14;10.00;;;2.53;;
50605;SDS011;36557;53.572;10.170;2023-05-29T08:45:43;11.80;;;2.72;;
50605;SDS011;36557;53.572;10.170;2023-05-29T08:48:10;9.88;;;2.42;;
50605;SDS011;36557;53.572;10.170;2023-05-29T08:50:44;7.88;;;2.30;;
50605;SDS011;36557;53.572;10.170;2023-05-29T08:53:12;12.63;;;2.83;;
50605;SDS011;36557;53.572;10.170;2023-05-29T08:55:38;12.38;;;2.33;;
50605;SDS011;36557;53.572;10.170;2023-05-29T08:58:04;11.68;;;2.92;;
50605;SDS011;36557;53.572;10.170;2023-05-29T09:00:32;9.88;;;2.33;;
50605;SDS011;36557;53.572;10.170;2023-05-29T09:02:58;9.15;;;2.28;;
50605;SDS011;36557;53.572;10.170;2023-05-29T09:05:24;12.00;;;2.47;;
50605;SDS011;36557;53.572;10.170;2023-05-29T09:07:54;13.95;;;2.72;;
50605;SDS011;36557;53.572;10.170;2023-05-29T09:10:21;13.93;;;3.50;;
50605;SDS011;36557;53.572;10.170;2023-05-29T09:12:47;10.02;;;2.20;;
50605;SDS011;36557;53.572;10.170;2023-05-29T09:20:19;10.13;;;2.70;;
50605;SDS011;36557;53.572;10.170;2023-05-29T09:23:04;9.77;;;2.80;;
50605;SDS011;36557;53.572;10.170;2023-05-29T09:25:32;9.15;;;3.17;;
50605;SDS011;36557;53.572;10.170;2023-05-29T09:27:59;12.80;;;2.92;;
50605;SDS011;36557;53.572;10.170;2023-05-29T09:33:04;10.57;;;2.50;;
50605;SDS011;36557;53.572;10.170;2023-05-29T09:38:03;12.77;;;3.20;;
50605;SDS011;36557;53.572;10.170;2023-05-29T09:40:30;9.10;;;2.45;;
50605;SDS011;36557;53.572;10.170;2023-05-29T09:43:04;8.45;;;2.50;;
50605;SDS011;36557;53.572;10.170;2023-05-29T09:45:32;10.45;;;2.55;;
50605;SDS011;36557;53.572;10.170;2023-05-29T09:47:58;13.00;;;2.78;;
50605;SDS011;36557;53.572;10.170;2023-05-29T09:50:27;6.53;;;2.08;;
50605;SDS011;36557;53.572;10.170;2023-05-29T09:52:56;11.73;;;2.47;;
50605;SDS011;36557;53.572;10.170;2023-05-29T09:55:23;9.73;;;3.00;;
50605;SDS011;36557;53.572;10.170;2023-05-29T09:57:52;12.82;;;2.78;;
50605;SDS011;36557;53.572;10.170;2023-05-29T10:00:19;7.95;;;2.45;;
50605;SDS011;36557;53.572;10.170;2023-05-29T10:02:47;7.53;;;2.60;;
50605;SDS011;36557;53.572;10.170;2023-05-29T10:05:14;6.10;;;2.05;;
50605;SDS011;36557;53.572;10.170;2023-05-29T10:07:43;7.80;;;2.58;;
50605;SDS011;36557;53.572;10.170;2023-05-29T10:10:13;10.77;;;2.20;;
50605;SDS011;36557;53.572;10.170;2023-05-29T10:12:48;6.75;;;2.05;;
50605;SDS011;36557;53.572;10.170;2023-05-29T10:15:15;9.73;;;2.53;;
50605;SDS011;36557;53.572;10.170;2023-05-29T10:17:44;7.43;;;2.22;;
50605;SDS011;36557;53.572;10.170;2023-05-29T10:20:21;7.53;;;2.15;;
50605;SDS011;36557;53.572;10.170;2023-05-29T10:22:49;9.43;;;2.03;;
50605;SDS011;36557;53.572;10.170;2023-05-29T10:25:17;9.68;;;2.30;;
50605;SDS011;36557;53.572;10.170;2023-05-29T10:27:45;7.68;;;2.30;;
50605;SDS011;36557;53.572;10.170;2023-05-29T10:33:07;7.68;;;2.38;;
50605;SDS011;36557;53.572;10.170;2023-05-29T10:38:12;6.68;;;2.45;;
50605;SDS011;36557;53.572;10.170;2023-05-29T10:40:41;11.95;;;2.72;;
50605;SDS011;36557;53.572;10.170;2023-05-29T10:43:08;7.15;;;2.50;;
50605;SDS011;36557;53.572;10.170;2023-05-29T10:53:03;7.30;;;1.92;;
50605;SDS011;36557;53.572;10.170;2023-05-29T10:55:38;7.82;;;1.90;;
50605;SDS011;36557;53.572;10.170;2023-05-29T10:58:08;5.22;;;1.95;;
50605;SDS011;36557;53.572;10.170;2023-05-29T11:00:44;7.00;;;2.10;;
50605;SDS011;36557;53.572;10.170;2023-05-29T11:03:12;5.70;;;2.05;;
50605;SDS011;36557;53.572;10.170;2023-05-29T11:06:18;5.72;;;1.75;;
50605;SDS011;36557;53.572;10.170;2023-05-29T11:08:56;6.60;;;2.10;;
50605;SDS011;36557;53.572;10.170;2023-05-29T11:13:55;5.43;;;2.03;;
50605;SDS011;36557;53.572;10.170;2023-05-29T11:18:53;6.68;;;2.30;;
50605;SDS011;36557;53.572;10.170;2023-05-29T11:24:06;7.28;;;2.03;;
50605;SDS011;36557;53.572;10.170;2023-05-29T11:26:32;8.40;;;2.35;;
50605;SDS011;36557;53.572;10.170;2023-05-29T11:28:59;7.72;;;2.00;;
50605;SDS011;36557;53.572;10.170;2023-05-29T11:31:29;8.02;;;2.50;;
50605;SDS011;36557;53.572;10.170;2023-05-29T11:33:59;6.45;;;2.22;;
50605;SDS011;36557;53.572;10.170;2023-05-29T11:36:28;9.57;;;2.55;;
50605;SDS011;36557;53.572;10.170;2023-05-29T11:38:56;6.88;;;2.20;;
50605;SDS011;36557;53.572;10.170;2023-05-29T11:41:22;7.65;;;2.30;;
50605;SDS011;36557;53.572;10.170;2023-05-29T11:46:23;6.55;;;1.92;;
50605;SDS011;36557;53.572;10.170;2023-05-29T11:48:51;6.75;;;2.05;;
50605;SDS011;36557;53.572;10.170;2023-05-29T11:51:17;6.18;;;2.00;;
50605;SDS011;36557;53.572;10.170;2023-05-29T11:53:43;7.00;;;2.10;;
50605;SDS011;36557;53.572;10.170;2023-05-29T11:56:11;7.57;;;2.55;;
50605;SDS011;36557;53.572;10.170;2023-05-29T11:58:40;8.40;;;2.15;;
50605;SDS011;36557;53.572;10.170;2023-05-29T12:01:07;5.78;;;1.95;;
50605;SDS011;36557;53.572;10.170;2023-05-29T12:03:40;5.78;;;2.20;;
50605;SDS011;36557;53.572;10.170;2023-05-29T12:06:07;7.10;;;2.10;;
50605;SDS011;36557;53.572;10.170;2023-05-29T12:08:35;7.05;;;2.30;;
50605;SDS011;36557;53.572;10.170;2023-05-29T12:11:02;7.70;;;2.20;;
50605;SDS011;36557;53.572;10.170;2023-05-29T12:13:27;7.55;;;2.35;;
50605;SDS011;36557;53.572;10.170;2023-05-29T12:15:57;8.60;;;1.90;;
50605;SDS011;36557;53.572;10.170;2023-05-29T12:18:26;7.10;;;2.20;;
50605;SDS011;36557;53.572;10.170;2023-05-29T12:20:59;6.32;;;2.10;;
50605;SDS011;36557;53.572;10.170;2023-05-29T12:23:27;6.75;;;2.88;;
50605;SDS011;36557;53.572;10.170;2023-05-29T12:25:53;6.95;;;2.10;;
50605;SDS011;36557;53.572;10.170;2023-05-29T12:28:20;6.60;;;2.33;;
50605;SDS011;36557;53.572;10.170;2023-05-29T12:30:46;6.70;;;1.85;;
50605;SDS011;36557;53.572;10.170;2023-05-29T12:33:30;5.38;;;2.10;;
50605;SDS011;36557;53.572;10.170;2023-05-29T12:38:29;7.80;;;1.95;;
50605;SDS011;36557;53.572;10.170;2023-05-29T12:40:55;7.55;;;2.13;;
50605;SDS011;36557;53.572;10.170;2023-05-29T12:43:21;9.27;;;2.17;;
50605;SDS011;36557;53.572;10.170;2023-05-29T12:45:53;7.75;;;2.08;;
50605;SDS011;36557;53.572;10.170;2023-05-29T12:48:20;7.75;;;2.35;;
50605;SDS011;36557;53.572;10.170;2023-05-29T12:50:51;8.48;;;2.28;;
50605;SDS011;36557;53.572;10.170;2023-05-29T12:53:16;6.38;;;2.10;;
50605;SDS011;36557;53.572;10.170;2023-05-29T12:55:42;7.80;;;2.30;;
50605;SDS011;36557;53.572;10.170;2023-05-29T12:58:12;8.98;;;2.47;;
50605;SDS011;36557;53.572;10.170;2023-05-29T13:00:39;10.60;;;2.47;;
50605;SDS011;36557;53.572;10.170;2023-05-29T13:03:06;6.28;;;2.22;;
50605;SDS011;36557;53.572;10.170;2023-05-29T13:05:32;6.18;;;2.22;;
50605;SDS011;36557;53.572;10.170;2023-05-29T13:07:58;6.43;;;1.85;;
50605;SDS011;36557;53.572;10.170;2023-05-29T13:10:25;6.03;;;2.50;;
50605;SDS011;36557;53.572;10.170;2023-05-29T13:12:52;6.28;;;1.83;;
50605;SDS011;36557;53.572;10.170;2023-05-29T13:15:23;7.57;;;2.03;;
50605;SDS011;36557;53.572;10.170;2023-05-29T13:17:49;5.88;;;2.10;;
50605;SDS011;36557;53.572;10.170;2023-05-29T13:20:15;7.93;;;2.22;;
50605;SDS011;36557;53.572;10.170;2023-05-29T13:22:42;6.30;;;1.92;;
50605;SDS011;36557;53.572;10.170;2023-05-29T13:25:10;5.47;;;2.10;;
50605;SDS011;36557;53.572;10.170;2023-05-29T13:27:37;5.05;;;1.92;;
50605;SDS011;36557;53.572;10.170;2023-05-29T13:32:35;8.38;;;2.08;;
50605;SDS011;36557;53.572;10.170;2023-05-29T13:35:01;6.32;;;1.95;;
50605;SDS011;36557;53.572;10.170;2023-05-29T13:37:28;5.10;;;1.85;;
50605;SDS011;36557;53.572;10.170;2023-05-29T13:39:54;6.65;;;2.22;;
50605;SDS011;36557;53.572;10.170;2023-05-29T13:42:20;5.65;;;1.95;;
50605;SDS011;36557;53.572;10.170;2023-05-29T13:44:47;5.32;;;1.77;;
50605;SDS011;36557;53.572;10.170;2023-05-29T13:47:13;8.27;;;1.92;;
50605;SDS011;36557;53.572;10.170;2023-05-29T13:49:39;10.43;;;2.30;;
50605;SDS011;36557;53.572;10.170;2023-05-29T13:52:05;7.50;;;2.00;;
50605;SDS011;36557;53.572;10.170;2023-05-29T13:54:31;6.15;;;2.22;;
50605;SDS011;36557;53.572;10.170;2023-05-29T13:57:03;8.35;;;2.55;;
50605;SDS011;36557;53.572;10.170;2023-05-29T13:59:31;6.90;;;2.05;;
50605;SDS011;36557;53.572;10.170;2023-05-29T14:01:57;7.38;;;2.30;;
50605;SDS011;36557;53.572;10.170;2023-05-29T14:04:23;8.48;;;2.60;;
50605;SDS011;36557;53.572;10.170;2023-05-29T14:06:49;6.68;;;2.13;;
50605;SDS011;36557;53.572;10.170;2023-05-29T14:09:15;6.15;;;2.08;;
50605;SDS011;36557;53.572;10.170;2023-05-29T14:11:41;5.60;;;1.85;;
50605;SDS011;36557;53.572;10.170;2023-05-29T14:14:07;5.05;;;2.13;;
50605;SDS011;36557;53.572;10.170;2023-05-29T14:16:33;5.72;;;2.00;;
50605;SDS011;36557;53.572;10.170;2023-05-29T14:18:59;7.72;;;1.98;;
50605;SDS011;36557;53.572;10.170;2023-05-29T14:21:25;8.10;;;2.08;;
50605;SDS011;36557;53.572;10.170;2023-05-29T14:23:51;6.32;;;2.00;;
50605;SDS011;36557;53.572;10.170;2023-05-29T14:26:16;4.85;;;2.17;;
50605;SDS011;36557;53.572;10.170;2023-05-29T14:28:43;5.70;;;1.80;;
50605;SDS011;36557;53.572;10.170;2023-05-29T14:31:09;3.75;;;1.42;;
50605;SDS011;36557;53.572;10.170;2023-05-29T14:33:35;8.00;;;2.15;;
50605;SDS011;36557;53.572;10.170;2023-05-29T14:36:01;6.88;;;2.35;;
50605;SDS011;36557;53.572;10.170;2023-05-29T14:38:27;4.60;;;2.03;;
50605;SDS011;36557;53.572;10.170;2023-05-29T14:40:53;4.30;;;1.98;;
50605;SDS011;36557;53.572;10.170;2023-05-29T14:43:19;9.13;;;2.00;;
50605;SDS011;36557;53.572;10.170;2023-05-29T14:45:45;4.80;;;1.92;;
50605;SDS011;36557;53.572;10.170;2023-05-29T14:48:10;6.57;;;2.03;;
50605;SDS011;36557;53.572;10.170;2023-05-29T14:50:36;6.55;;;2.38;;
50605;SDS011;36557;53.572;10.170;2023-05-29T14:53:02;4.65;;;2.00;;
50605;SDS011;36557;53.572;10.170;2023-05-29T14:55:28;6.65;;;2.20;;
50605;SDS011;36557;53.572;10.170;2023-05-29T14:57:55;8.57;;;2.25;;
50605;SDS011;36557;53.572;10.170;2023-05-29T15:00:21;8.48;;;1.88;;
50605;SDS011;36557;53.572;10.170;2023-05-29T15:02:47;7.07;;;2.47;;
50605;SDS011;36557;53.572;10.170;2023-05-29T15:05:12;5.00;;;1.88;;
50605;SDS011;36557;53.572;10.170;2023-05-29T15:07:38;6.60;;;2.20;;
50605;SDS011;36557;53.572;10.170;2023-05-29T15:10:04;5.70;;;1.98;;
50605;SDS011;36557;53.572;10.170;2023-05-29T15:12:32;6.72;;;2.28;;
50605;SDS011;36557;53.572;10.170;2023-05-29T15:14:57;5.63;;;1.67;;